createdAt,value
2022-12-20T00:00:33.703Z,0
2022-12-20T00:01:38.075Z,0
2022-12-20T00:03:45.080Z,0
2022-12-20T00:05:52.576Z,0
2022-12-20T00:07:59.845Z,0
2022-12-20T00:09:03.924Z,0
2022-12-20T00:11:10.807Z,0
2022-12-20T00:13:17.664Z,0
2022-12-20T00:15:24.171Z,0
2022-12-20T00:16:27.628Z,0
2022-12-20T00:18:33.876Z,0
2022-12-20T00:20:39.829Z,0
2022-12-20T00:22:45.808Z,0
2022-12-20T00:23:49.012Z,0
2022-12-20T00:25:54.742Z,0
2022-12-20T00:28:00.794Z,0
2022-12-20T00:30:08.343Z,0
2022-12-20T00:31:11.933Z,0
2022-12-20T00:33:18.589Z,0
2022-12-20T00:35:25.530Z,0
2022-12-20T00:37:32.577Z,0
2022-12-20T00:38:36.134Z,0
2022-12-20T00:40:42.607Z,0
2022-12-20T00:42:00.400Z,0
2022-12-20T00:43:04.375Z,0
2022-12-20T00:45:11.917Z,0
2022-12-20T00:46:14.714Z,0
2022-12-20T00:48:21.143Z,0
2022-12-20T00:49:39.193Z,0
2022-12-20T00:50:43.001Z,0
2022-12-20T00:52:49.251Z,0
2022-12-20T00:54:56.812Z,0
2022-12-20T00:56:00.303Z,0
2022-12-20T00:58:06.577Z,0
2022-12-20T01:00:13.423Z,0
2022-12-20T01:02:20.778Z,0
2022-12-20T01:03:26.195Z,0
2022-12-20T01:05:31.894Z,0
2022-12-20T01:07:37.825Z,0
2022-12-20T01:09:44.096Z,0
2022-12-20T01:10:47.725Z,0
2022-12-20T01:12:52.974Z,0
2022-12-20T01:14:59.627Z,0
2022-12-20T01:16:03.458Z,0
2022-12-20T01:18:10.065Z,0
2022-12-20T01:20:17.311Z,0
2022-12-20T01:22:23.839Z,0
2022-12-20T01:23:26.679Z,0
2022-12-20T01:25:33.289Z,0
2022-12-20T01:27:39.204Z,0
2022-12-20T01:29:46.074Z,0
2022-12-20T01:30:50.108Z,0
2022-12-20T01:32:57.442Z,0
2022-12-20T01:35:03.435Z,0
2022-12-20T01:37:09.920Z,0
2022-12-20T01:38:12.843Z,0
2022-12-20T01:40:20.263Z,0
2022-12-20T01:42:26.907Z,0
2022-12-20T01:44:32.491Z,0
2022-12-20T01:45:35.564Z,0
2022-12-20T01:47:41.695Z,0
2022-12-20T01:49:47.867Z,0
2022-12-20T01:51:54.641Z,0
2022-12-20T01:52:58.411Z,0
2022-12-20T01:55:05.222Z,0
2022-12-20T01:57:12.231Z,0
2022-12-20T01:58:15.317Z,0
2022-12-20T01:59:19.005Z,0
2022-12-20T02:00:22.698Z,0
2022-12-20T02:02:32.427Z,0
2022-12-20T02:04:38.110Z,0
2022-12-20T02:05:40.986Z,0
2022-12-20T02:07:47.530Z,0
2022-12-20T02:09:53.715Z,0
2022-12-20T02:10:56.523Z,0
2022-12-20T02:13:03.411Z,0
2022-12-20T02:15:10.282Z,0
2022-12-20T02:16:13.646Z,0
2022-12-20T02:18:20.515Z,0
2022-12-20T02:19:23.876Z,0
2022-12-20T02:21:29.661Z,0
2022-12-20T02:22:33.030Z,0
2022-12-20T02:23:36.358Z,0
2022-12-20T02:24:39.767Z,0
2022-12-20T02:26:45.394Z,0
2022-12-20T02:27:48.525Z,0
2022-12-20T02:29:55.405Z,0
2022-12-20T02:32:02.617Z,0
2022-12-20T02:33:04.959Z,0
2022-12-20T02:35:10.339Z,0
2022-12-20T02:37:16.155Z,0
2022-12-20T02:38:19.190Z,0
2022-12-20T02:40:25.892Z,0
2022-12-20T02:41:29.294Z,0
2022-12-20T02:43:35.517Z,0
2022-12-20T02:45:41.228Z,0
2022-12-20T02:47:47.236Z,0
2022-12-20T02:48:51.235Z,0
2022-12-20T02:50:57.435Z,0
2022-12-20T02:53:03.552Z,0
2022-12-20T02:54:06.765Z,0
2022-12-20T02:55:09.510Z,0
2022-12-20T02:56:12.912Z,0
2022-12-20T02:57:15.480Z,0
2022-12-20T02:59:21.373Z,0
2022-12-20T03:01:28.667Z,0
2022-12-20T03:03:36.594Z,0
2022-12-20T03:04:39.422Z,0
2022-12-20T03:06:46.059Z,0
2022-12-20T03:08:51.707Z,0
2022-12-20T03:09:54.731Z,0
2022-12-20T03:10:57.736Z,0
2022-12-20T03:12:00.577Z,0
2022-12-20T03:14:06.796Z,0
2022-12-20T03:15:09.885Z,0
2022-12-20T03:16:13.026Z,0
2022-12-20T03:17:16.522Z,0
2022-12-20T03:19:23.285Z,0
2022-12-20T03:21:29.495Z,0
2022-12-20T03:22:32.316Z,0
2022-12-20T03:24:38.441Z,0
2022-12-20T03:26:44.386Z,0
2022-12-20T03:28:50.068Z,0
2022-12-20T03:29:53.061Z,0
2022-12-20T03:32:00.314Z,0
2022-12-20T03:34:06.786Z,0
2022-12-20T03:36:13.514Z,0
2022-12-20T03:37:16.744Z,0
2022-12-20T03:39:23.442Z,0
2022-12-20T03:41:29.622Z,0
2022-12-20T03:43:35.502Z,0
2022-12-20T03:44:38.386Z,0
2022-12-20T03:46:44.328Z,0
2022-12-20T03:48:51.177Z,0
2022-12-20T03:50:57.191Z,0
2022-12-20T03:52:00.003Z,0
2022-12-20T03:54:07.153Z,0
2022-12-20T03:56:13.979Z,0
2022-12-20T03:58:19.453Z,0
2022-12-20T03:59:23.458Z,0
2022-12-20T04:01:30.485Z,0
2022-12-20T04:03:38.621Z,0
2022-12-20T04:05:44.908Z,0
2022-12-20T04:06:48.279Z,0
2022-12-20T04:08:54.424Z,0
2022-12-20T04:10:59.055Z,0
2022-12-20T04:13:05.877Z,0
2022-12-20T04:14:09.221Z,0
2022-12-20T04:16:16.631Z,0
2022-12-20T04:18:22.488Z,0
2022-12-20T04:20:29.347Z,0
2022-12-20T04:21:32.787Z,0
2022-12-20T04:22:36.055Z,0
2022-12-20T04:23:39.721Z,0
2022-12-20T04:25:47.241Z,0
2022-12-20T04:26:50.005Z,0
2022-12-20T04:27:52.774Z,0
2022-12-20T04:28:55.887Z,0
2022-12-20T04:31:02.104Z,0
2022-12-20T04:32:05.135Z,0
2022-12-20T04:33:08.647Z,0
2022-12-20T04:34:11.787Z,0
2022-12-20T04:36:17.423Z,0
2022-12-20T04:38:23.657Z,0
2022-12-20T04:39:26.381Z,0
2022-12-20T04:41:32.628Z,0
2022-12-20T04:43:38.370Z,0
2022-12-20T04:45:45.163Z,0
2022-12-20T04:46:48.720Z,0
2022-12-20T04:49:02.067Z,0
2022-12-20T04:50:05.286Z,0
2022-12-20T04:51:08.409Z,0
2022-12-20T04:53:14.763Z,0
2022-12-20T04:54:17.888Z,0
2022-12-20T04:56:23.897Z,0
2022-12-20T04:58:29.197Z,0
2022-12-20T05:00:34.729Z,0
2022-12-20T05:01:39.183Z,0
2022-12-20T05:03:47.561Z,0
2022-12-20T05:05:54.159Z,0
2022-12-20T05:08:00.615Z,0
2022-12-20T05:09:04.235Z,0
2022-12-20T05:10:07.339Z,0
2022-12-20T05:11:10.728Z,0
2022-12-20T05:13:16.313Z,0
2022-12-20T05:14:19.965Z,0
2022-12-20T05:15:23.600Z,0
2022-12-20T05:16:28.755Z,0
2022-12-20T05:18:35.586Z,0
2022-12-20T05:20:42.038Z,0
2022-12-20T05:21:44.785Z,0
2022-12-20T05:23:50.975Z,0
2022-12-20T05:25:57.388Z,0
2022-12-20T05:28:04.948Z,0
2022-12-20T05:29:07.758Z,0
2022-12-20T05:31:14.004Z,0
2022-12-20T05:33:20.046Z,0
2022-12-20T05:35:26.233Z,0
2022-12-20T05:36:29.485Z,0
2022-12-20T05:38:35.590Z,0
2022-12-20T05:40:41.122Z,0
2022-12-20T05:42:47.927Z,0
2022-12-20T05:43:51.371Z,0
2022-12-20T05:45:56.515Z,0
2022-12-20T05:48:03.241Z,0
2022-12-20T05:50:20.663Z,0
2022-12-20T05:51:24.054Z,0
2022-12-20T05:52:26.758Z,0
2022-12-20T05:53:29.816Z,0
2022-12-20T05:55:36.774Z,0
2022-12-20T05:57:43.736Z,0
2022-12-20T05:58:46.796Z,0
2022-12-20T06:00:54.106Z,0
2022-12-20T06:03:03.129Z,0
2022-12-20T06:05:09.574Z,0
2022-12-20T06:06:17.318Z,0
2022-12-20T06:08:23.664Z,0
2022-12-20T06:10:29.952Z,0
2022-12-20T06:12:36.944Z,0
2022-12-20T06:13:39.465Z,0
2022-12-20T06:15:46.576Z,0
2022-12-20T06:17:52.617Z,0
2022-12-20T06:19:58.729Z,0
2022-12-20T06:21:02.377Z,0
2022-12-20T06:23:08.910Z,0
2022-12-20T06:25:14.950Z,0
2022-12-20T06:27:21.513Z,0
2022-12-20T06:28:25.270Z,0
2022-12-20T06:30:36.246Z,0
2022-12-20T06:31:40.038Z,0
2022-12-20T06:32:43.208Z,0
2022-12-20T06:34:49.683Z,0
2022-12-20T06:35:52.757Z,0
2022-12-20T06:36:54.953Z,0
2022-12-20T06:37:58.290Z,0
2022-12-20T06:39:11.504Z,0
2022-12-20T06:40:15.576Z,0
2022-12-20T06:42:21.541Z,0
2022-12-20T06:43:24.326Z,0
2022-12-20T06:45:32.582Z,0
2022-12-20T06:46:40.268Z,0
2022-12-20T06:47:43.721Z,0
2022-12-20T06:49:50.232Z,0
2022-12-20T06:52:00.718Z,0
2022-12-20T06:53:03.878Z,0
2022-12-20T06:55:10.407Z,0
2022-12-20T06:57:16.710Z,0
2022-12-20T06:59:23.418Z,0
2022-12-20T07:00:29.694Z,0
2022-12-20T07:02:38.038Z,0
2022-12-20T07:04:45.757Z,0
2022-12-20T07:06:51.294Z,0
2022-12-20T07:07:54.750Z,0
2022-12-20T07:10:00.655Z,0
2022-12-20T07:12:07.423Z,0
2022-12-20T07:14:14.098Z,0
2022-12-20T07:15:17.623Z,0
2022-12-20T07:17:26.518Z,0
2022-12-20T07:19:33.869Z,0
2022-12-20T07:21:39.734Z,0
2022-12-20T07:22:44.464Z,0
2022-12-20T07:24:50.663Z,0
2022-12-20T07:26:57.252Z,0
2022-12-20T07:29:03.334Z,0
2022-12-20T07:30:06.938Z,0
2022-12-20T07:32:13.713Z,0
2022-12-20T07:34:19.638Z,1
2022-12-20T07:36:27.194Z,2
2022-12-20T07:37:30.850Z,2
2022-12-20T07:38:34.117Z,3
2022-12-20T07:39:37.647Z,3
2022-12-20T07:41:44.114Z,3
2022-12-20T07:42:51.230Z,3
2022-12-20T07:43:54.620Z,3
2022-12-20T07:44:58.354Z,3
2022-12-20T07:47:06.972Z,3
2022-12-20T07:48:23.071Z,3
2022-12-20T07:49:26.151Z,3
2022-12-20T07:50:30.801Z,3
2022-12-20T07:52:38.012Z,3
2022-12-20T07:54:43.769Z,4
2022-12-20T07:56:51.115Z,5
2022-12-20T07:57:53.890Z,6
2022-12-20T08:00:00.492Z,6
2022-12-20T08:02:09.541Z,6
2022-12-20T08:03:14.267Z,5
2022-12-20T08:04:17.979Z,6
2022-12-20T08:05:20.959Z,6
2022-12-20T08:07:29.173Z,5
2022-12-20T08:08:33.251Z,4
2022-12-20T08:09:36.652Z,3
2022-12-20T08:10:40.115Z,3
2022-12-20T08:12:46.849Z,3
2022-12-20T08:13:59.976Z,4
2022-12-20T08:15:03.400Z,5
2022-12-20T08:16:06.812Z,6
2022-12-20T08:18:14.425Z,7
2022-12-20T08:20:21.331Z,8
2022-12-20T08:22:27.962Z,11
2022-12-20T08:23:31.377Z,11
2022-12-20T08:25:44.403Z,11
2022-12-20T08:26:47.128Z,10
2022-12-20T08:27:50.535Z,9
2022-12-20T08:29:56.321Z,7
2022-12-20T08:30:59.737Z,8
2022-12-20T08:33:06.714Z,11
2022-12-20T08:35:14.125Z,11
2022-12-20T08:37:20.537Z,12
2022-12-20T08:38:24.026Z,13
2022-12-20T08:40:30.135Z,19
2022-12-20T08:42:37.708Z,17
2022-12-20T08:44:45.755Z,18
2022-12-20T08:45:49.489Z,17
2022-12-20T08:47:55.952Z,15
2022-12-20T08:50:03.299Z,14
2022-12-20T08:52:11.430Z,13
2022-12-20T08:53:14.205Z,11
2022-12-20T08:55:31.154Z,9
2022-12-20T08:57:37.941Z,10
2022-12-20T08:59:44.465Z,14
2022-12-20T09:00:46.906Z,17
2022-12-20T09:02:56.374Z,15
2022-12-20T09:05:03.663Z,14
2022-12-20T09:06:07.146Z,16
2022-12-20T09:07:10.908Z,15
2022-12-20T09:08:13.981Z,13
2022-12-20T09:10:20.940Z,14
2022-12-20T09:11:24.371Z,15
2022-12-20T09:12:27.463Z,19
2022-12-20T09:13:31.319Z,21
2022-12-20T09:15:38.928Z,22
2022-12-20T09:17:45.240Z,22
2022-12-20T09:18:48.099Z,25
2022-12-20T09:19:51.580Z,26
2022-12-20T09:20:54.966Z,30
2022-12-20T09:23:01.353Z,39
2022-12-20T09:24:04.432Z,39
2022-12-20T09:25:07.578Z,42
2022-12-20T09:26:10.453Z,54
2022-12-20T09:28:16.597Z,50
2022-12-20T09:29:37.397Z,39
2022-12-20T09:30:41.696Z,33
2022-12-20T09:31:46.952Z,26
2022-12-20T09:33:52.543Z,20
2022-12-20T09:35:58.526Z,22
2022-12-20T09:38:05.225Z,23
2022-12-20T09:39:08.891Z,22
2022-12-20T09:41:24.782Z,20
2022-12-20T09:43:31.658Z,21
2022-12-20T09:45:37.725Z,24
2022-12-20T09:46:41.926Z,26
2022-12-20T09:47:44.995Z,26
2022-12-20T09:48:48.365Z,27
2022-12-20T09:50:54.625Z,34
2022-12-20T09:51:57.778Z,38
2022-12-20T09:54:04.533Z,47
2022-12-20T09:56:11.287Z,52
2022-12-20T09:57:14.722Z,53
2022-12-20T09:59:21.323Z,55
2022-12-20T10:01:42.437Z,53
2022-12-20T10:03:14.401Z,52
2022-12-20T10:04:20.188Z,49
2022-12-20T10:05:24.940Z,45
2022-12-20T10:07:32.179Z,47
2022-12-20T10:08:35.561Z,46
2022-12-20T10:09:38.712Z,42
2022-12-20T10:10:42.008Z,39
2022-12-20T10:12:56.818Z,37
2022-12-20T10:14:00.559Z,38
2022-12-20T10:16:07.432Z,40
2022-12-20T10:18:14.061Z,38
2022-12-20T10:19:17.458Z,38
2022-12-20T10:21:23.418Z,40
2022-12-20T10:23:35.063Z,41
2022-12-20T10:24:38.480Z,42
2022-12-20T10:26:43.811Z,47
2022-12-20T10:28:56.535Z,57
2022-12-20T10:29:59.981Z,57
2022-12-20T10:32:06.818Z,52
2022-12-20T10:34:12.980Z,57
2022-12-20T10:35:16.667Z,61
2022-12-20T10:37:23.168Z,56
2022-12-20T10:39:29.354Z,42
2022-12-20T10:41:24.997Z,43
2022-12-20T10:42:28.681Z,54
2022-12-20T10:43:32.419Z,64
2022-12-20T10:45:39.013Z,96
2022-12-20T10:46:43.391Z,105
2022-12-20T10:48:49.718Z,120
2022-12-20T10:50:56.760Z,122
2022-12-20T10:52:00.414Z,111
2022-12-20T10:54:08.007Z,90
2022-12-20T10:56:14.073Z,80
2022-12-20T10:57:17.795Z,79
2022-12-20T10:59:25.326Z,91
2022-12-20T11:01:33.299Z,119
2022-12-20T11:02:46.516Z,141
2022-12-20T11:03:51.762Z,165
2022-12-20T11:04:54.841Z,161
2022-12-20T11:07:01.424Z,129
2022-12-20T11:09:01.767Z,115
2022-12-20T11:10:05.391Z,110
2022-12-20T11:12:11.773Z,96
2022-12-20T11:14:19.655Z,103
2022-12-20T11:15:36.558Z,100
2022-12-20T11:16:42.317Z,93
2022-12-20T11:17:46.036Z,86
2022-12-20T11:19:52.961Z,84
2022-12-20T11:20:55.687Z,96
2022-12-20T11:23:02.503Z,113
2022-12-20T11:25:09.449Z,87
2022-12-20T11:26:13.095Z,69
2022-12-20T11:28:22.493Z,54
2022-12-20T11:29:25.628Z,50
2022-12-20T11:30:29.065Z,44
2022-12-20T11:31:32.900Z,42
2022-12-20T11:33:39.634Z,42
2022-12-20T11:34:42.966Z,44
2022-12-20T11:36:48.547Z,46
2022-12-20T11:37:51.844Z,41
2022-12-20T11:39:58.772Z,31
2022-12-20T11:41:02.511Z,29
2022-12-20T11:43:09.354Z,31
2022-12-20T11:44:30.056Z,31
2022-12-20T11:45:33.639Z,32
2022-12-20T11:46:37.308Z,34
2022-12-20T11:47:40.493Z,37
2022-12-20T11:48:44.228Z,38
2022-12-20T11:49:46.981Z,35
2022-12-20T11:50:50.766Z,30
2022-12-20T11:51:54.430Z,26
2022-12-20T11:52:57.547Z,23
2022-12-20T11:54:00.589Z,22
2022-12-20T11:55:04.246Z,23
2022-12-20T11:57:10.283Z,29
2022-12-20T11:58:23.026Z,35
2022-12-20T11:59:26.405Z,43
2022-12-20T12:00:30.227Z,53
2022-12-20T12:02:38.984Z,62
2022-12-20T12:03:42.520Z,61
2022-12-20T12:05:49.913Z,57
2022-12-20T12:06:52.909Z,58
2022-12-20T12:07:56.746Z,57
2022-12-20T12:09:00.507Z,54
2022-12-20T12:10:03.640Z,52
2022-12-20T12:11:07.295Z,51
2022-12-20T12:12:12.220Z,52
2022-12-20T12:14:19.064Z,48
2022-12-20T12:15:22.423Z,47
2022-12-20T12:17:30.278Z,53
2022-12-20T12:18:33.424Z,58
2022-12-20T12:19:37.147Z,58
2022-12-20T12:20:40.044Z,54
2022-12-20T12:22:46.473Z,48
2022-12-20T12:23:49.231Z,49
2022-12-20T12:25:56.759Z,44
2022-12-20T12:28:04.331Z,40
2022-12-20T12:30:10.893Z,53
2022-12-20T12:31:13.791Z,57
2022-12-20T12:33:38.387Z,54
2022-12-20T12:34:42.573Z,45
2022-12-20T12:35:46.410Z,41
2022-12-20T12:36:50.071Z,40
2022-12-20T12:39:04.969Z,36
2022-12-20T12:40:08.941Z,33
2022-12-20T12:42:15.669Z,36
2022-12-20T12:43:19.343Z,39
2022-12-20T12:44:22.510Z,39
2022-12-20T12:45:25.991Z,37
2022-12-20T12:47:33.712Z,29
2022-12-20T12:48:37.140Z,26
2022-12-20T12:50:44.658Z,26
2022-12-20T12:52:51.129Z,29
2022-12-20T12:53:54.529Z,31
2022-12-20T12:56:48.611Z,32
2022-12-20T12:57:52.478Z,26
2022-12-20T12:58:56.182Z,23
2022-12-20T13:01:03.567Z,21
2022-12-20T13:02:08.124Z,21
2022-12-20T13:04:16.742Z,19
2022-12-20T13:05:27.990Z,20
2022-12-20T13:06:31.800Z,22
2022-12-20T13:08:38.837Z,26
2022-12-20T13:09:42.221Z,27
2022-12-20T13:12:12.784Z,21
2022-12-20T13:14:19.243Z,25
2022-12-20T13:17:27.149Z,26
2022-12-20T13:18:31.406Z,23
2022-12-20T13:19:34.853Z,26
2022-12-20T13:21:42.651Z,29
2022-12-20T13:22:46.022Z,33
2022-12-20T13:24:53.201Z,33
2022-12-20T13:26:59.152Z,28
2022-12-20T13:28:12.390Z,25
2022-12-20T13:29:16.048Z,21
2022-12-20T13:30:20.067Z,18
2022-12-20T13:32:27.640Z,16
2022-12-20T13:33:30.221Z,15
2022-12-20T13:35:37.499Z,13
2022-12-20T13:37:55.454Z,14
2022-12-20T13:40:02.962Z,19
2022-12-20T13:41:05.757Z,18
2022-12-20T13:43:11.917Z,14
2022-12-20T13:45:19.429Z,13
2022-12-20T13:46:23.129Z,13
2022-12-20T13:48:28.594Z,14
2022-12-20T13:49:31.870Z,15
2022-12-20T13:51:38.780Z,15
2022-12-20T13:53:46.012Z,17
2022-12-20T13:54:49.986Z,17
2022-12-20T13:55:53.740Z,17
2022-12-20T13:56:57.429Z,16
2022-12-20T13:59:03.045Z,12
2022-12-20T14:00:10.172Z,11
2022-12-20T14:02:19.320Z,10
2022-12-20T14:04:27.920Z,10
2022-12-20T14:06:34.203Z,12
2022-12-20T14:07:37.621Z,13
2022-12-20T14:09:45.181Z,14
2022-12-20T14:11:52.357Z,13
2022-12-20T14:13:59.499Z,10
2022-12-20T14:15:02.923Z,8
2022-12-20T14:17:10.070Z,7
2022-12-20T14:18:14.178Z,6
2022-12-20T14:19:17.881Z,6
2022-12-20T14:20:21.533Z,6
2022-12-20T14:22:29.063Z,5
2022-12-20T14:23:32.157Z,5
2022-12-20T14:25:39.695Z,4
2022-12-20T14:27:46.223Z,3
2022-12-20T14:29:52.802Z,3
2022-12-20T14:30:56.571Z,3
2022-12-20T14:33:03.441Z,3
2022-12-20T14:34:06.921Z,3
2022-12-20T14:35:10.800Z,3
2022-12-20T14:36:14.593Z,3
2022-12-20T14:37:17.875Z,3
2022-12-20T14:38:21.344Z,2
2022-12-20T14:39:25.124Z,2
2022-12-20T14:41:31.963Z,2
2022-12-20T14:42:35.674Z,2
2022-12-20T14:43:39.082Z,2
2022-12-20T14:44:42.122Z,1
2022-12-20T14:46:51.719Z,1
2022-12-20T14:47:55.778Z,1
2022-12-20T14:50:02.992Z,1
2022-12-20T14:52:09.438Z,1
2022-12-20T14:53:13.284Z,0
2022-12-20T14:55:12.578Z,1
2022-12-20T14:57:20.026Z,1
2022-12-20T14:58:23.359Z,0
2022-12-20T15:00:30.260Z,0
2022-12-20T15:01:46.207Z,0
2022-12-20T15:02:51.162Z,0
2022-12-20T15:04:59.882Z,0
2022-12-20T15:07:06.944Z,0
2022-12-20T15:08:10.311Z,0
2022-12-20T15:10:17.985Z,0
2022-12-20T15:12:29.125Z,0
2022-12-20T15:13:32.798Z,0
2022-12-20T15:14:36.336Z,0
2022-12-20T15:15:40.448Z,0
2022-12-20T15:17:47.182Z,0
2022-12-20T15:18:50.854Z,0
2022-12-20T15:19:54.211Z,0
2022-12-20T15:20:57.120Z,0
2022-12-20T15:23:03.771Z,0
2022-12-20T15:24:07.275Z,0
2022-12-20T15:26:14.246Z,0
2022-12-20T15:28:21.481Z,0
2022-12-20T15:30:28.580Z,0
2022-12-20T15:31:36.425Z,0
2022-12-20T15:32:56.760Z,0
2022-12-20T15:33:59.857Z,0
2022-12-20T15:36:06.083Z,0
2022-12-20T15:37:20.568Z,0
2022-12-20T15:39:16.233Z,0
2022-12-20T15:41:22.625Z,0
2022-12-20T15:43:37.036Z,0
2022-12-20T15:45:45.323Z,0
2022-12-20T15:47:52.509Z,0
2022-12-20T15:48:55.911Z,0
2022-12-20T15:51:02.789Z,0
2022-12-20T15:53:09.148Z,0
2022-12-20T15:54:13.175Z,0
2022-12-20T15:56:20.628Z,0
2022-12-20T15:58:27.878Z,0
2022-12-20T16:00:05.658Z,0
2022-12-20T16:01:08.487Z,0
2022-12-20T16:02:12.400Z,0
2022-12-20T16:04:20.651Z,0
2022-12-20T16:06:26.487Z,0
2022-12-20T16:08:33.283Z,0
2022-12-20T16:09:36.293Z,0
2022-12-20T16:10:39.290Z,0
2022-12-20T16:11:42.347Z,0
2022-12-20T16:13:48.979Z,0
2022-12-20T16:14:52.273Z,0
2022-12-20T16:16:58.407Z,0
2022-12-20T16:19:04.538Z,0
2022-12-20T16:21:10.752Z,0
2022-12-20T16:22:13.852Z,0
2022-12-20T16:24:20.525Z,0
2022-12-20T16:26:27.962Z,0
2022-12-20T16:28:35.408Z,0
2022-12-20T16:29:38.783Z,0
2022-12-20T16:30:53.874Z,0
2022-12-20T16:31:57.829Z,0
2022-12-20T16:34:04.439Z,0
2022-12-20T16:36:10.754Z,0
2022-12-20T16:37:15.302Z,0
2022-12-20T16:39:21.901Z,0
2022-12-20T16:41:27.719Z,0
2022-12-20T16:43:41.290Z,0
2022-12-20T16:44:46.429Z,0
2022-12-20T16:46:54.406Z,0
2022-12-20T16:49:01.831Z,0
2022-12-20T16:51:09.178Z,0
2022-12-20T16:52:12.473Z,0
2022-12-20T16:54:24.007Z,0
2022-12-20T16:55:27.406Z,0
2022-12-20T16:56:31.093Z,0
2022-12-20T16:59:24.787Z,0
2022-12-20T17:00:29.477Z,0
2022-12-20T17:01:34.010Z,0
2022-12-20T17:03:42.352Z,0
2022-12-20T17:04:46.432Z,0
2022-12-20T17:06:52.278Z,0
2022-12-20T17:11:11.670Z,0
2022-12-20T17:12:15.129Z,0
2022-12-20T17:14:21.326Z,0
2022-12-20T17:16:28.535Z,0
2022-12-20T17:18:36.452Z,0
2022-12-20T17:19:39.277Z,0
2022-12-20T17:22:56.580Z,0
2022-12-20T17:24:01.173Z,0
2022-12-20T17:26:07.824Z,0
2022-12-20T17:27:11.111Z,0
2022-12-20T17:29:17.365Z,0
2022-12-20T17:31:24.580Z,0
2022-12-20T17:32:28.256Z,0
2022-12-20T17:33:32.117Z,0
2022-12-20T17:34:35.491Z,0
2022-12-20T17:36:42.315Z,0
2022-12-20T17:37:45.051Z,0
2022-12-20T17:38:48.406Z,0
2022-12-20T17:39:51.582Z,0
2022-12-20T17:41:58.547Z,0
2022-12-20T17:44:05.380Z,0
2022-12-20T17:45:08.729Z,0
2022-12-20T17:47:16.011Z,0
2022-12-20T17:49:22.617Z,0
2022-12-20T17:51:29.161Z,0
2022-12-20T17:52:32.779Z,0
2022-12-20T17:54:42.500Z,0
2022-12-20T17:56:48.515Z,0
2022-12-20T17:57:52.009Z,0
2022-12-20T17:58:55.013Z,0
2022-12-20T17:59:58.628Z,0
2022-12-20T18:02:06.457Z,0
2022-12-20T18:04:07.184Z,0
2022-12-20T18:05:11.660Z,0
2022-12-20T18:07:17.168Z,0
2022-12-20T18:09:24.259Z,0
2022-12-20T18:11:31.736Z,0
2022-12-20T18:12:39.723Z,0
2022-12-20T18:14:45.478Z,0
2022-12-20T18:16:52.729Z,0
2022-12-20T18:18:59.249Z,0
2022-12-20T18:20:02.705Z,0
2022-12-20T18:22:08.748Z,0
2022-12-20T18:24:15.053Z,0
2022-12-20T18:26:19.982Z,0
2022-12-20T18:27:32.382Z,0
2022-12-20T18:29:39.006Z,0
2022-12-20T18:31:46.823Z,0
2022-12-20T18:34:00.810Z,0
2022-12-20T18:36:07.378Z,0
2022-12-20T18:37:11.269Z,0
2022-12-20T18:39:17.099Z,0
2022-12-20T18:41:24.228Z,0
2022-12-20T18:43:30.941Z,0
2022-12-20T18:44:34.016Z,0
2022-12-20T18:46:40.592Z,0
2022-12-20T18:48:46.598Z,0
2022-12-20T18:50:53.467Z,0
2022-12-20T18:51:57.173Z,0
2022-12-20T18:54:06.727Z,0
2022-12-20T18:56:12.436Z,0
2022-12-20T18:58:20.209Z,0
2022-12-20T18:59:23.317Z,0
2022-12-20T19:00:26.708Z,0
2022-12-20T19:01:31.355Z,0
2022-12-20T19:03:39.810Z,0
2022-12-20T19:04:42.053Z,0
2022-12-20T19:05:44.891Z,0
2022-12-20T19:06:48.297Z,0
2022-12-20T19:08:55.300Z,0
2022-12-20T19:11:00.948Z,0
2022-12-20T19:12:04.672Z,0
2022-12-20T19:14:12.022Z,0
2022-12-20T19:16:18.297Z,0
2022-12-20T19:18:24.898Z,0
2022-12-20T19:19:27.890Z,0
2022-12-20T19:21:34.097Z,0
2022-12-20T19:23:40.428Z,0
2022-12-20T19:25:46.822Z,0
2022-12-20T19:26:49.886Z,0
2022-12-20T19:28:56.438Z,0
2022-12-20T19:31:02.988Z,0
2022-12-20T19:33:09.449Z,0
2022-12-20T19:34:12.489Z,0
2022-12-20T19:35:58.390Z,0
2022-12-20T19:38:04.569Z,0
2022-12-20T19:39:08.255Z,0
2022-12-20T19:41:15.473Z,0
2022-12-20T19:42:27.375Z,0
2022-12-20T19:43:30.554Z,0
2022-12-20T19:44:33.947Z,0
2022-12-20T19:45:36.776Z,0
2022-12-20T19:46:41.106Z,0
2022-12-20T19:48:46.989Z,0
2022-12-20T19:49:49.427Z,0
2022-12-20T19:50:52.348Z,0
2022-12-20T19:51:55.414Z,0
2022-12-20T19:54:01.676Z,0
2022-12-20T19:56:09.329Z,0
2022-12-20T19:57:13.298Z,0
2022-12-20T19:59:20.200Z,0
2022-12-20T20:01:28.698Z,0
2022-12-20T20:03:38.851Z,0
2022-12-20T20:04:42.308Z,0
2022-12-20T20:06:48.941Z,0
2022-12-20T20:08:54.767Z,0
2022-12-20T20:11:11.985Z,0
2022-12-20T20:13:19.242Z,0
2022-12-20T20:14:21.975Z,0
2022-12-20T20:16:29.187Z,0
2022-12-20T20:18:35.632Z,0
2022-12-20T20:20:41.590Z,0
2022-12-20T20:21:44.779Z,0
2022-12-20T20:23:51.744Z,0
2022-12-20T20:25:57.606Z,0
2022-12-20T20:28:05.147Z,0
2022-12-20T20:29:08.287Z,0
2022-12-20T20:31:15.280Z,0
2022-12-20T20:33:22.590Z,0
2022-12-20T20:35:28.481Z,0
2022-12-20T20:36:31.839Z,0
2022-12-20T20:38:37.406Z,0
2022-12-20T20:40:43.897Z,0
2022-12-20T20:42:50.815Z,0
2022-12-20T20:43:54.620Z,0
2022-12-20T20:44:58.360Z,0
2022-12-20T20:46:02.018Z,0
2022-12-20T20:48:08.276Z,0
2022-12-20T20:49:10.819Z,0
2022-12-20T20:50:14.253Z,0
2022-12-20T20:51:17.628Z,0
2022-12-20T20:53:35.730Z,0
2022-12-20T20:55:42.085Z,0
2022-12-20T20:56:45.784Z,0
2022-12-20T20:58:52.005Z,0
2022-12-20T21:00:59.958Z,0
2022-12-20T21:03:08.681Z,0
2022-12-20T21:04:12.459Z,0
2022-12-20T21:06:44.908Z,0
2022-12-20T21:07:48.263Z,0
2022-12-20T21:08:51.533Z,0
2022-12-20T21:10:58.465Z,0
2022-12-20T21:13:05.622Z,0
2022-12-20T21:14:09.415Z,0
2022-12-20T21:15:28.748Z,0
2022-12-20T21:16:33.009Z,0
2022-12-20T21:18:39.366Z,0
2022-12-20T21:20:45.413Z,0
2022-12-20T21:21:48.695Z,0
2022-12-20T21:23:55.407Z,0
2022-12-20T21:26:01.413Z,0
2022-12-20T21:28:07.956Z,0
2022-12-20T21:29:11.415Z,0
2022-12-20T21:31:19.308Z,0
2022-12-20T21:33:26.299Z,0
2022-12-20T21:35:33.198Z,0
2022-12-20T21:36:36.967Z,0
2022-12-20T21:37:39.775Z,0
2022-12-20T21:38:42.861Z,0
2022-12-20T21:40:49.109Z,0
2022-12-20T21:42:01.802Z,0
2022-12-20T21:43:05.623Z,0
2022-12-20T21:45:12.609Z,0
2022-12-20T21:46:16.677Z,0
2022-12-20T21:48:23.045Z,0
2022-12-20T21:50:28.857Z,0
2022-12-20T21:52:34.494Z,0
2022-12-20T21:53:37.227Z,0
2022-12-20T21:55:43.383Z,0
2022-12-20T21:57:50.547Z,0
2022-12-20T21:58:53.683Z,0
2022-12-20T21:59:57.349Z,0
2022-12-20T22:01:01.309Z,0
2022-12-20T22:03:10.879Z,0
2022-12-20T22:05:17.775Z,0
2022-12-20T22:06:20.866Z,0
2022-12-20T22:08:27.782Z,0
2022-12-20T22:10:33.875Z,0
2022-12-20T22:12:39.383Z,0
2022-12-20T22:13:44.325Z,0
2022-12-20T22:15:51.889Z,0
2022-12-20T22:17:59.141Z,0
2022-12-20T22:20:05.074Z,0
2022-12-20T22:21:07.990Z,0
2022-12-20T22:23:12.990Z,0
2022-12-20T22:25:18.949Z,0
2022-12-20T22:26:22.336Z,0
2022-12-20T22:27:25.850Z,0
2022-12-20T22:28:29.528Z,0
2022-12-20T22:30:36.073Z,0
2022-12-20T22:31:40.408Z,0
2022-12-20T22:32:43.569Z,0
2022-12-20T22:33:47.072Z,0
2022-12-20T22:35:53.999Z,0
2022-12-20T22:38:00.465Z,0
2022-12-20T22:39:03.357Z,0
2022-12-20T22:41:09.523Z,0
2022-12-20T22:43:16.226Z,0
2022-12-20T22:45:23.388Z,0
2022-12-20T22:46:27.405Z,0
2022-12-20T22:48:33.743Z,0
2022-12-20T22:50:41.020Z,0
2022-12-20T22:52:47.484Z,0
2022-12-20T22:53:50.671Z,0
2022-12-20T22:55:55.973Z,0
2022-12-20T22:58:01.568Z,0
2022-12-20T23:00:08.126Z,0
2022-12-20T23:01:11.621Z,0
2022-12-20T23:03:21.340Z,0
2022-12-20T23:05:28.326Z,0
2022-12-20T23:07:35.161Z,0
2022-12-20T23:08:37.391Z,0
2022-12-20T23:10:43.384Z,0
2022-12-20T23:12:49.861Z,0
2022-12-20T23:13:52.909Z,0
2022-12-20T23:15:05.925Z,0
2022-12-20T23:16:09.307Z,0
2022-12-20T23:18:17.124Z,0
2022-12-20T23:20:23.893Z,0
2022-12-20T23:21:27.725Z,0
2022-12-20T23:22:31.130Z,0
2022-12-20T23:23:34.120Z,0
2022-12-20T23:25:40.535Z,0
2022-12-20T23:26:43.658Z,0
2022-12-20T23:27:46.753Z,0
2022-12-20T23:28:50.048Z,0
2022-12-20T23:30:56.587Z,0
2022-12-20T23:33:03.399Z,0
2022-12-20T23:34:06.454Z,0
2022-12-20T23:35:14.887Z,0
2022-12-20T23:36:18.048Z,0
2022-12-20T23:38:25.206Z,0
2022-12-20T23:40:30.728Z,0
2022-12-20T23:41:34.089Z,0
2022-12-20T23:43:40.720Z,0
2022-12-20T23:45:48.040Z,0
2022-12-20T23:47:54.163Z,0
2022-12-20T23:48:57.669Z,0
2022-12-20T23:51:04.942Z,0
2022-12-20T23:53:11.640Z,0
2022-12-20T23:55:18.251Z,0
2022-12-20T23:56:21.111Z,0
2022-12-20T23:57:24.824Z,0
2022-12-20T23:58:27.909Z,0
